createdAt,value
2024-05-09T00:00:35.743Z,12.36
2024-05-09T00:03:10.882Z,12.38
2024-05-09T00:05:40.463Z,12.42
2024-05-09T00:08:08.534Z,12.43
2024-05-09T00:10:37.707Z,12.39
2024-05-09T00:13:06.782Z,12.40
2024-05-09T00:15:34.155Z,12.23
2024-05-09T00:18:01.751Z,12.16
2024-05-09T00:20:36.585Z,12.00
2024-05-09T00:23:10.883Z,11.84
2024-05-09T00:25:38.400Z,11.76
2024-05-09T00:28:05.635Z,11.69
2024-05-09T00:30:35.426Z,11.72
2024-05-09T00:33:08.535Z,11.69
2024-05-09T00:35:36.678Z,11.58
2024-05-09T00:38:03.777Z,11.63
2024-05-09T00:40:41.776Z,11.57
2024-05-09T00:43:11.629Z,11.43
2024-05-09T00:45:38.897Z,11.44
2024-05-09T00:48:07.700Z,11.45
2024-05-09T00:50:37.993Z,11.22
2024-05-09T00:53:06.690Z,11.29
2024-05-09T00:55:35.250Z,11.37
2024-05-09T00:58:02.784Z,11.31
2024-05-09T01:00:37.786Z,11.29
2024-05-09T01:03:07.121Z,11.21
2024-05-09T01:05:34.903Z,11.14
2024-05-09T01:08:02.981Z,11.06
2024-05-09T01:10:34.446Z,10.92
2024-05-09T01:13:03.771Z,11.05
2024-05-09T01:15:30.328Z,11.08
2024-05-09T01:17:57.963Z,11.09
2024-05-09T01:20:36.458Z,11.04
2024-05-09T01:23:08.437Z,11.01
2024-05-09T01:25:35.688Z,10.71
2024-05-09T01:28:02.421Z,10.57
2024-05-09T01:30:34.612Z,10.52
2024-05-09T01:33:04.173Z,10.40
2024-05-09T01:35:31.214Z,10.37
2024-05-09T01:37:57.907Z,10.38
2024-05-09T01:40:33.539Z,10.51
2024-05-09T01:43:04.619Z,10.58
2024-05-09T01:45:31.180Z,10.51
2024-05-09T01:47:58.015Z,10.36
2024-05-09T01:50:35.937Z,10.35
2024-05-09T01:53:05.971Z,10.25
2024-05-09T01:55:32.577Z,10.13
2024-05-09T01:57:59.135Z,9.93
2024-05-09T02:00:36.885Z,9.97
2024-05-09T02:03:14.419Z,9.99
2024-05-09T02:05:44.179Z,10.00
2024-05-09T02:08:16.585Z,9.96
2024-05-09T02:10:44.458Z,9.80
2024-05-09T02:13:11.325Z,9.76
2024-05-09T02:15:38.101Z,9.82
2024-05-09T02:18:05.299Z,9.74
2024-05-09T02:20:36.210Z,9.65
2024-05-09T02:23:06.017Z,9.67
2024-05-09T02:25:33.079Z,9.66
2024-05-09T02:27:59.785Z,9.65
2024-05-09T02:30:36.230Z,9.62
2024-05-09T02:33:07.664Z,9.51
2024-05-09T02:35:34.798Z,9.48
2024-05-09T02:38:01.785Z,9.52
2024-05-09T02:40:36.280Z,9.49
2024-05-09T02:43:05.715Z,9.54
2024-05-09T02:45:32.418Z,9.27
2024-05-09T02:47:59.234Z,9.33
2024-05-09T02:50:33.929Z,9.27
2024-05-09T02:53:05.103Z,9.21
2024-05-09T02:55:31.782Z,9.18
2024-05-09T02:57:58.294Z,9.15
2024-05-09T03:00:34.213Z,9.08
2024-05-09T03:03:06.483Z,9.11
2024-05-09T03:05:33.459Z,9.10
2024-05-09T03:08:00.192Z,9.04
2024-05-09T03:10:29.108Z,9.01
2024-05-09T03:13:05.643Z,9.04
2024-05-09T03:15:33.100Z,8.88
2024-05-09T03:18:00.916Z,8.85
2024-05-09T03:20:33.370Z,8.85
2024-05-09T03:23:02.175Z,8.82
2024-05-09T03:25:30.023Z,8.76
2024-05-09T03:27:56.594Z,8.71
2024-05-09T03:30:35.839Z,8.76
2024-05-09T03:33:10.758Z,8.63
2024-05-09T03:35:37.950Z,8.57
2024-05-09T03:38:04.788Z,8.65
2024-05-09T03:40:31.516Z,8.70
2024-05-09T03:42:58.792Z,8.69
2024-05-09T03:45:26.520Z,8.68
2024-05-09T03:47:53.194Z,8.69
2024-05-09T03:50:26.458Z,8.73
2024-05-09T03:53:00.304Z,8.78
2024-05-09T03:55:26.926Z,8.82
2024-05-09T03:57:53.468Z,8.79
2024-05-09T04:00:30.057Z,8.75
2024-05-09T04:03:02.051Z,8.78
2024-05-09T04:05:30.739Z,8.71
2024-05-09T04:07:57.581Z,8.79
2024-05-09T04:10:31.051Z,8.77
2024-05-09T04:13:00.379Z,8.84
2024-05-09T04:15:26.961Z,8.89
2024-05-09T04:17:53.768Z,8.63
2024-05-09T04:20:29.365Z,8.81
2024-05-09T04:23:04.067Z,8.74
2024-05-09T04:25:32.106Z,8.71
2024-05-09T04:27:58.624Z,8.85
2024-05-09T04:30:34.510Z,8.83
2024-05-09T04:33:06.163Z,8.93
2024-05-09T04:35:33.313Z,9.00
2024-05-09T04:38:00.563Z,8.98
2024-05-09T04:40:33.163Z,9.04
2024-05-09T04:43:02.967Z,9.07
2024-05-09T04:45:29.553Z,9.07
2024-05-09T04:47:56.298Z,9.24
2024-05-09T04:50:30.370Z,9.19
2024-05-09T04:53:03.181Z,9.16
2024-05-09T04:55:29.879Z,9.36
2024-05-09T04:57:56.401Z,9.33
2024-05-09T05:00:32.276Z,9.27
2024-05-09T05:03:07.006Z,9.36
2024-05-09T05:05:34.791Z,9.44
2024-05-09T05:08:01.459Z,9.45
2024-05-09T05:10:33.967Z,9.54
2024-05-09T05:13:16.547Z,9.60
2024-05-09T05:15:43.872Z,9.60
2024-05-09T05:18:10.572Z,9.54
2024-05-09T05:20:37.234Z,9.62
2024-05-09T05:23:03.948Z,9.59
2024-05-09T05:25:30.545Z,9.74
2024-05-09T05:27:57.067Z,9.89
2024-05-09T05:30:29.022Z,10.02
2024-05-09T05:32:59.844Z,10.14
2024-05-09T05:35:26.879Z,10.28
2024-05-09T05:37:53.553Z,10.32
2024-05-09T05:40:28.192Z,10.25
2024-05-09T05:43:02.195Z,10.26
2024-05-09T05:45:28.707Z,10.27
2024-05-09T05:47:55.430Z,10.31
2024-05-09T05:50:27.921Z,10.34
2024-05-09T05:53:02.188Z,10.40
2024-05-09T05:55:28.952Z,10.45
2024-05-09T05:57:55.468Z,10.57
2024-05-09T06:00:29.547Z,10.78
2024-05-09T06:03:02.548Z,10.80
2024-05-09T06:05:29.309Z,10.88
2024-05-09T06:07:55.942Z,11.03
2024-05-09T06:10:26.347Z,11.06
2024-05-09T06:13:01.316Z,10.99
2024-05-09T06:15:27.890Z,11.04
2024-05-09T06:17:54.710Z,11.02
2024-05-09T06:20:31.249Z,11.13
2024-05-09T06:23:03.099Z,11.15
2024-05-09T06:25:29.784Z,11.31
2024-05-09T06:27:56.334Z,11.29
2024-05-09T06:30:30.126Z,11.41
2024-05-09T06:33:05.276Z,11.46
2024-05-09T06:35:32.709Z,11.62
2024-05-09T06:37:59.484Z,11.71
2024-05-09T06:40:34.448Z,11.86
2024-05-09T06:43:04.873Z,11.96
2024-05-09T06:45:31.404Z,11.99
2024-05-09T06:47:58.159Z,12.05
2024-05-09T06:50:28.325Z,12.24
2024-05-09T06:52:58.327Z,12.51
2024-05-09T06:55:24.886Z,12.64
2024-05-09T06:57:51.468Z,12.70
2024-05-09T07:00:26.860Z,12.78
2024-05-09T07:02:59.015Z,13.07
2024-05-09T07:05:27.062Z,13.09
2024-05-09T07:07:53.713Z,13.14
2024-05-09T07:10:28.487Z,13.28
2024-05-09T07:12:59.347Z,13.18
2024-05-09T07:15:25.990Z,13.18
2024-05-09T07:17:52.795Z,13.24
2024-05-09T07:20:27.635Z,13.24
2024-05-09T07:23:00.672Z,13.23
2024-05-09T07:25:27.250Z,13.19
2024-05-09T07:27:53.777Z,13.33
2024-05-09T07:30:27.635Z,13.25
2024-05-09T07:32:59.871Z,13.21
2024-05-09T07:35:26.906Z,13.20
2024-05-09T07:37:53.717Z,13.15
2024-05-09T07:42:49.744Z,13.38
2024-05-09T07:45:39.096Z,13.42
2024-05-09T07:52:23.251Z,13.70
2024-05-09T07:53:38.592Z,13.56
2024-05-09T07:56:07.528Z,13.52
2024-05-09T07:58:34.428Z,13.71
2024-05-09T08:01:02.647Z,13.80
2024-05-09T08:03:29.480Z,13.75
2024-05-09T08:05:56.203Z,13.79
2024-05-09T08:08:23.099Z,13.95
2024-05-09T08:10:50.507Z,14.07
2024-05-09T08:13:17.288Z,14.06
2024-05-09T08:15:43.990Z,13.95
2024-05-09T08:18:11.003Z,13.98
2024-05-09T08:20:38.961Z,13.98
2024-05-09T08:23:05.666Z,14.23
2024-05-09T08:25:32.179Z,14.38
2024-05-09T08:27:58.791Z,14.29
2024-05-09T08:30:32.649Z,14.28
2024-05-09T08:33:03.600Z,14.33
2024-05-09T08:35:30.212Z,14.36
2024-05-09T08:37:56.795Z,14.30
2024-05-09T08:40:30.838Z,14.32
2024-05-09T08:43:02.970Z,14.39
2024-05-09T08:45:30.769Z,14.50
2024-05-09T08:48:00.205Z,14.61
2024-05-09T08:50:35.385Z,14.52
2024-05-09T08:53:05.487Z,14.73
2024-05-09T08:55:32.247Z,14.92
2024-05-09T08:58:01.388Z,14.82
2024-05-09T09:00:36.714Z,14.99
2024-05-09T09:03:06.780Z,15.05
2024-05-09T09:05:37.938Z,15.23
2024-05-09T09:08:07.510Z,15.34
2024-05-09T09:10:34.341Z,15.35
2024-05-09T09:13:05.247Z,15.33
2024-05-09T09:15:32.266Z,15.48
2024-05-09T09:18:00.194Z,15.73
2024-05-09T09:20:34.196Z,15.74
2024-05-09T09:23:03.352Z,15.69
2024-05-09T09:25:29.949Z,15.83
2024-05-09T09:27:58.292Z,15.89
2024-05-09T09:30:35.070Z,16.01
2024-05-09T09:33:04.898Z,16.05
2024-05-09T09:35:31.727Z,16.05
2024-05-09T09:38:03.070Z,16.27
2024-05-09T09:40:42.989Z,16.44
2024-05-09T09:43:23.175Z,16.51
2024-05-09T09:45:51.324Z,16.53
2024-05-09T09:48:19.904Z,16.33
2024-05-09T09:50:47.388Z,16.33
2024-05-09T09:53:14.315Z,16.22
2024-05-09T09:55:41.790Z,16.14
2024-05-09T09:58:13.228Z,16.08
2024-05-09T10:00:41.367Z,16.00
2024-05-09T10:03:08.239Z,15.95
2024-05-09T10:05:35.250Z,15.81
2024-05-09T10:08:07.517Z,15.95
2024-05-09T10:10:35.854Z,15.83
2024-05-09T10:13:06.508Z,15.96
2024-05-09T10:15:53.768Z,15.97
2024-05-09T10:18:29.181Z,16.03
2024-05-09T10:20:57.683Z,16.12
2024-05-09T10:23:36.621Z,16.32
2024-05-09T10:26:05.327Z,16.26
2024-05-09T10:28:32.905Z,16.17
2024-05-09T10:31:13.415Z,16.14
2024-05-09T10:33:46.119Z,16.30
2024-05-09T10:36:13.726Z,16.41
2024-05-09T10:38:42.625Z,16.46
2024-05-09T10:41:09.554Z,16.49
2024-05-09T10:43:40.810Z,16.68
2024-05-09T10:46:08.275Z,16.63
2024-05-09T10:48:36.898Z,16.65
2024-05-09T10:51:04.353Z,16.51
2024-05-09T10:53:44.493Z,16.23
2024-05-09T10:56:12.966Z,16.32
2024-05-09T10:58:39.648Z,16.45
2024-05-09T11:01:07.388Z,16.45
2024-05-09T11:03:35.635Z,16.50
2024-05-09T11:06:02.835Z,16.54
2024-05-09T11:08:31.636Z,16.53
2024-05-09T11:10:59.677Z,16.59
2024-05-09T11:13:30.837Z,16.62
2024-05-09T11:15:58.509Z,16.72
2024-05-09T11:18:28.213Z,16.49
2024-05-09T11:20:57.308Z,16.59
2024-05-09T11:23:30.141Z,16.69
2024-05-09T11:25:59.328Z,16.68
2024-05-09T11:28:28.408Z,16.78
2024-05-09T11:31:05.091Z,16.79
2024-05-09T11:33:32.185Z,16.89
2024-05-09T11:35:58.909Z,16.99
2024-05-09T11:38:25.785Z,17.03
2024-05-09T11:40:52.349Z,17.02
2024-05-09T11:43:19.081Z,16.93
2024-05-09T11:45:45.779Z,17.08
2024-05-09T11:48:12.434Z,16.88
2024-05-09T11:50:39.423Z,16.83
2024-05-09T11:53:06.515Z,16.91
2024-05-09T11:55:36.804Z,17.02
2024-05-09T11:58:04.685Z,17.09
2024-05-09T12:00:36.798Z,17.07
2024-05-09T12:03:05.641Z,16.95
2024-05-09T12:05:33.084Z,16.65
2024-05-09T12:08:01.177Z,16.81
2024-05-09T12:10:33.282Z,16.82
2024-05-09T12:13:03.146Z,16.75
2024-05-09T12:15:31.081Z,16.73
2024-05-09T12:18:00.033Z,16.76
2024-05-09T12:20:35.610Z,16.92
2024-05-09T12:23:05.324Z,16.90
2024-05-09T12:25:32.035Z,16.90
2024-05-09T12:27:58.891Z,17.12
2024-05-09T12:30:35.010Z,17.34
2024-05-09T12:33:05.670Z,17.27
2024-05-09T12:35:32.565Z,17.47
2024-05-09T12:37:59.124Z,17.57
2024-05-09T12:40:34.387Z,17.70
2024-05-09T12:43:04.711Z,17.83
2024-05-09T12:45:31.580Z,17.68
2024-05-09T12:47:58.487Z,17.53
2024-05-09T12:50:31.741Z,17.37
2024-05-09T12:53:00.446Z,17.53
2024-05-09T12:55:28.130Z,17.57
2024-05-09T12:57:55.199Z,17.65
2024-05-09T13:00:31.447Z,17.67
2024-05-09T13:03:01.138Z,17.77
2024-05-09T13:05:28.303Z,17.89
2024-05-09T13:07:56.660Z,17.87
2024-05-09T13:10:31.631Z,17.65
2024-05-09T13:13:03.249Z,17.53
2024-05-09T13:15:31.130Z,17.69
2024-05-09T13:18:01.859Z,17.67
2024-05-09T13:20:33.637Z,17.70
2024-05-09T13:23:03.642Z,17.93
2024-05-09T13:25:30.261Z,18.17
2024-05-09T13:27:57.439Z,18.19
2024-05-09T13:30:33.948Z,18.42
2024-05-09T13:33:06.110Z,18.52
2024-05-09T13:35:34.877Z,18.53
2024-05-09T13:38:02.375Z,18.71
2024-05-09T13:40:33.753Z,18.71
2024-05-09T13:43:03.214Z,18.72
2024-05-09T13:45:30.003Z,18.67
2024-05-09T13:47:56.969Z,18.89
2024-05-09T13:50:32.920Z,18.95
2024-05-09T13:53:02.636Z,18.83
2024-05-09T13:55:29.600Z,19.03
2024-05-09T13:57:56.440Z,19.16
2024-05-09T14:00:37.387Z,19.21
2024-05-09T14:03:10.080Z,19.43
2024-05-09T14:05:36.990Z,19.71
2024-05-09T14:08:04.160Z,19.74
2024-05-09T14:10:32.099Z,19.40
2024-05-09T14:13:00.051Z,19.39
2024-05-09T14:15:26.907Z,19.45
2024-05-09T14:17:54.233Z,19.72
2024-05-09T14:20:30.301Z,19.64
2024-05-09T14:22:59.207Z,19.40
2024-05-09T14:25:28.491Z,19.51
2024-05-09T14:27:55.828Z,19.93
2024-05-09T14:30:30.413Z,20.33
2024-05-09T14:33:03.196Z,20.17
2024-05-09T14:35:29.916Z,20.18
2024-05-09T14:37:56.529Z,20.26
2024-05-09T14:40:35.913Z,20.35
2024-05-09T14:43:07.874Z,20.55
2024-05-09T14:45:34.765Z,20.59
2024-05-09T14:48:02.304Z,20.80
2024-05-09T14:50:35.436Z,20.70
2024-05-09T14:53:06.201Z,20.52
2024-05-09T14:55:35.756Z,20.61
2024-05-09T14:58:03.336Z,20.55
2024-05-09T15:00:35.593Z,20.50
2024-05-09T15:03:03.678Z,20.54
2024-05-09T15:05:30.458Z,20.79
2024-05-09T15:07:58.307Z,21.04
2024-05-09T15:10:33.709Z,21.07
2024-05-09T15:13:02.864Z,21.04
2024-05-09T15:15:29.771Z,20.84
2024-05-09T15:17:56.727Z,21.32
2024-05-09T15:20:31.216Z,21.31
2024-05-09T15:23:02.248Z,21.31
2024-05-09T15:25:29.036Z,21.50
2024-05-09T15:27:55.710Z,21.18
2024-05-09T15:30:30.203Z,21.39
2024-05-09T15:32:59.284Z,21.46
2024-05-09T15:35:25.909Z,21.68
2024-05-09T15:37:52.547Z,21.66
2024-05-09T15:40:26.805Z,21.57
2024-05-09T15:43:02.500Z,21.78
2024-05-09T15:45:29.598Z,21.75
2024-05-09T15:47:57.121Z,21.73
2024-05-09T15:50:35.322Z,21.68
2024-05-09T15:53:06.442Z,21.91
2024-05-09T15:55:34.181Z,21.86
2024-05-09T15:58:02.122Z,21.77
2024-05-09T16:00:37.191Z,21.47
2024-05-09T16:03:07.606Z,21.27
2024-05-09T16:05:34.649Z,21.29
2024-05-09T16:08:01.349Z,21.28
2024-05-09T16:10:32.634Z,21.24
2024-05-09T16:13:01.346Z,21.50
2024-05-09T16:15:28.480Z,21.46
2024-05-09T16:17:55.313Z,21.42
2024-05-09T16:20:33.714Z,21.87
2024-05-09T16:23:06.052Z,21.93
2024-05-09T16:25:32.640Z,21.98
2024-05-09T16:27:59.586Z,21.96
2024-05-09T16:30:33.505Z,22.10
2024-05-09T16:33:02.392Z,22.39
2024-05-09T16:35:29.305Z,22.71
2024-05-09T16:37:55.884Z,22.57
2024-05-09T16:40:30.214Z,22.77
2024-05-09T16:43:04.421Z,22.89
2024-05-09T16:45:31.335Z,22.71
2024-05-09T16:47:59.380Z,22.74
2024-05-09T16:50:31.470Z,22.97
2024-05-09T16:53:00.332Z,23.18
2024-05-09T16:55:27.146Z,23.65
2024-05-09T16:57:54.635Z,24.09
2024-05-09T17:00:31.282Z,24.35
2024-05-09T17:03:06.446Z,25.28
2024-05-09T17:05:33.749Z,25.58
2024-05-09T17:08:01.211Z,26.18
2024-05-09T17:10:32.896Z,26.28
2024-05-09T17:13:01.881Z,27.03
2024-05-09T17:15:28.699Z,26.83
2024-05-09T17:17:55.896Z,26.57
2024-05-09T17:20:29.680Z,25.28
2024-05-09T17:23:02.513Z,25.19
2024-05-09T17:25:29.474Z,25.51
2024-05-09T17:27:56.592Z,26.07
2024-05-09T17:30:31.546Z,25.31
2024-05-09T17:33:02.563Z,24.81
2024-05-09T17:35:29.508Z,24.22
2024-05-09T17:37:56.542Z,23.28
2024-05-09T17:40:31.004Z,23.56
2024-05-09T17:43:01.618Z,23.26
2024-05-09T17:45:28.448Z,22.80
2024-05-09T17:47:55.322Z,22.25
2024-05-09T17:50:27.956Z,21.90
2024-05-09T17:53:01.076Z,21.42
2024-05-09T17:55:28.611Z,21.02
2024-05-09T17:57:55.470Z,20.93
2024-05-09T18:00:32.699Z,20.65
2024-05-09T18:03:05.229Z,20.29
2024-05-09T18:05:32.175Z,20.12
2024-05-09T18:07:58.858Z,19.95
2024-05-09T18:10:30.069Z,19.88
2024-05-09T18:13:02.564Z,19.62
2024-05-09T18:15:29.174Z,19.48
2024-05-09T18:17:55.835Z,19.20
2024-05-09T18:20:32.734Z,19.00
2024-05-09T18:23:07.543Z,18.85
2024-05-09T18:25:34.198Z,18.76
2024-05-09T18:28:02.787Z,18.61
2024-05-09T18:30:34.967Z,18.55
2024-05-09T18:33:07.991Z,18.46
2024-05-09T18:35:35.725Z,18.39
2024-05-09T18:38:03.212Z,18.21
2024-05-09T18:40:34.567Z,18.24
2024-05-09T18:43:05.526Z,18.13
2024-05-09T18:45:33.565Z,18.02
2024-05-09T18:48:00.490Z,17.91
2024-05-09T18:50:34.646Z,17.88
2024-05-09T18:53:08.922Z,17.71
2024-05-09T18:55:35.667Z,17.70
2024-05-09T18:58:03.207Z,17.67
2024-05-09T19:00:35.580Z,17.60
2024-05-09T19:03:08.926Z,17.50
2024-05-09T19:05:37.716Z,17.41
2024-05-09T19:08:05.193Z,17.37
2024-05-09T19:10:34.760Z,17.28
2024-05-09T19:13:06.808Z,17.15
2024-05-09T19:15:37.541Z,17.05
2024-05-09T19:18:04.454Z,17.04
2024-05-09T19:20:34.533Z,16.99
2024-05-09T19:23:02.630Z,16.92
2024-05-09T19:25:29.374Z,16.83
2024-05-09T19:27:56.023Z,16.82
2024-05-09T19:30:30.376Z,16.77
2024-05-09T19:33:05.162Z,16.72
2024-05-09T19:35:32.255Z,16.58
2024-05-09T19:37:58.978Z,16.61
2024-05-09T19:40:31.263Z,16.61
2024-05-09T19:43:00.048Z,16.40
2024-05-09T19:45:26.754Z,16.41
2024-05-09T19:47:53.527Z,16.41
2024-05-09T19:50:27.019Z,16.36
2024-05-09T19:53:02.584Z,16.34
2024-05-09T19:55:29.105Z,16.25
2024-05-09T19:57:55.682Z,16.20
2024-05-09T20:00:29.138Z,16.06
2024-05-09T20:03:01.787Z,16.03
2024-05-09T20:05:30.740Z,16.08
2024-05-09T20:07:57.632Z,16.11
2024-05-09T20:10:29.555Z,15.98
2024-05-09T20:12:58.922Z,15.97
2024-05-09T20:15:25.496Z,15.90
2024-05-09T20:17:52.112Z,15.83
2024-05-09T20:20:28.296Z,15.79
2024-05-09T20:23:02.827Z,15.75
2024-05-09T20:25:29.645Z,15.60
2024-05-09T20:27:56.234Z,15.59
2024-05-09T20:30:30.454Z,15.50
2024-05-09T20:33:00.094Z,15.41
2024-05-09T20:35:31.792Z,15.39
2024-05-09T20:37:58.825Z,15.36
2024-05-09T20:40:31.635Z,15.35
2024-05-09T20:43:02.017Z,15.28
2024-05-09T20:45:28.659Z,15.30
2024-05-09T20:47:55.366Z,15.20
2024-05-09T20:50:29.182Z,15.18
2024-05-09T20:53:03.503Z,15.10
2024-05-09T20:55:30.351Z,15.09
2024-05-09T20:57:57.521Z,15.04
2024-05-09T21:00:33.730Z,14.98
2024-05-09T21:03:05.834Z,14.87
2024-05-09T21:05:32.946Z,14.86
2024-05-09T21:07:59.677Z,14.84
2024-05-09T21:10:27.262Z,14.86
2024-05-09T21:12:56.449Z,14.75
2024-05-09T21:15:23.132Z,14.68
2024-05-09T21:17:50.070Z,14.74
2024-05-09T21:20:20.643Z,14.71
2024-05-09T21:22:50.861Z,14.65
2024-05-09T21:25:17.470Z,14.60
2024-05-09T21:27:44.119Z,14.62
2024-05-09T21:30:18.408Z,14.54
2024-05-09T21:32:49.735Z,14.53
2024-05-09T21:35:17.398Z,14.51
2024-05-09T21:37:43.959Z,14.43
2024-05-09T21:40:14.002Z,14.46
2024-05-09T21:42:48.443Z,14.40
2024-05-09T21:45:15.177Z,14.45
2024-05-09T21:47:42.267Z,14.30
2024-05-09T21:50:12.526Z,14.20
2024-05-09T21:52:41.871Z,14.11
2024-05-09T21:55:08.692Z,14.06
2024-05-09T21:57:35.373Z,14.03
2024-05-09T22:00:02.156Z,13.89
2024-05-09T22:02:28.953Z,13.80
2024-05-09T22:04:55.940Z,13.73
2024-05-09T22:07:23.658Z,13.73
2024-05-09T22:09:50.276Z,13.61
2024-05-09T22:12:16.823Z,13.61
2024-05-09T22:14:43.424Z,13.69
2024-05-09T22:17:09.963Z,13.71
2024-05-09T22:19:36.663Z,13.51
2024-05-09T22:22:03.641Z,13.57
2024-05-09T22:24:30.221Z,13.54
2024-05-09T22:26:56.743Z,13.52
2024-05-09T22:29:23.302Z,13.52
2024-05-09T22:31:49.918Z,13.47
2024-05-09T22:34:16.550Z,13.38
2024-05-09T22:36:43.494Z,13.36
2024-05-09T22:39:10.036Z,13.27
2024-05-09T22:41:36.754Z,13.29
2024-05-09T22:44:03.638Z,13.18
2024-05-09T22:46:30.365Z,13.18
2024-05-09T22:48:57.065Z,13.16
2024-05-09T22:51:23.680Z,13.10
2024-05-09T22:53:50.233Z,13.11
2024-05-09T22:56:26.322Z,13.11
2024-05-09T22:58:52.846Z,13.06
2024-05-09T23:01:19.484Z,13.01
2024-05-09T23:03:47.151Z,12.96
2024-05-09T23:06:14.242Z,12.95
2024-05-09T23:08:40.757Z,12.99
2024-05-09T23:11:07.686Z,12.95
2024-05-09T23:13:35.330Z,12.97
2024-05-09T23:16:02.354Z,12.89
2024-05-09T23:18:29.137Z,12.89
2024-05-09T23:20:55.684Z,12.88
2024-05-09T23:23:22.208Z,12.88
2024-05-09T23:25:49.531Z,12.81
2024-05-09T23:28:16.107Z,12.83
2024-05-09T23:30:42.856Z,12.75
2024-05-09T23:33:11.913Z,12.74
2024-05-09T23:35:41.014Z,12.69
2024-05-09T23:38:07.559Z,12.70
2024-05-09T23:40:38.822Z,12.67
2024-05-09T23:43:08.717Z,12.57
2024-05-09T23:45:36.194Z,12.57
2024-05-09T23:48:03.611Z,12.61
2024-05-09T23:50:35.943Z,12.46
2024-05-09T23:53:05.804Z,12.50
2024-05-09T23:55:32.867Z,12.45
2024-05-09T23:58:00.238Z,12.44
